Terminal Aerodrome Forecast
Issued by NWS Memphis, TN

Current Version | Previous Version | Text Only | Print | Product List | Glossary On
Versions: 1 2 3 4 5 6 7 8 9 10 11 12 13
000
FTUS44 KMEG 190500
TAFMKL
TAF
KMKL 190525Z 1906/2006 00000KT P6SM SCT080 BKN250
     FM190900 00000KT P6SM SKC
     FM191500 03009KT P6SM SKC
     FM200000 00000KT P6SM SKC=

USA.gov is the U.S. government's official web portal to all federal, state and local government web resources and services.